Arthur, Iowa
Current Conditions -  °F | °C
As of 3:35 PM on Saturday 22 Nov 2014 (Local Time) from KSLB Reporting Station
Haze Haze  
Wind Chill:   Ceiling: Unl
Heat Index:   Visibility: 3mi
Dew Point:   Wind: 15mph
Humidity: 87%   Direction: 200°SSW
Pressure: 29.64"   Gusts: NA
Location:  42.33°N, 95.35°W
Report Text: KSLB 222135Z AUTO 20013KT 3SM BR CLR 06/04 A2964 RMK AO2
Loading
Personal Weather Stations






























Interactive Weather Map New forecast layout! Learn more

10-Day Weather Forecast

Advertisements
Track Severe Weather on mobile